createdAt,value
2023-02-14T00:00:50.694Z,0.65
2023-02-14T00:01:50.765Z,0.66
2023-02-14T00:02:50.854Z,0.65
2023-02-14T00:03:50.890Z,0.65
2023-02-14T01:19:56.110Z,0.85
2023-02-14T01:20:56.144Z,0.85
2023-02-14T01:21:56.219Z,0.85
2023-02-14T01:22:56.295Z,0.85
2023-02-14T01:23:56.355Z,0.85
2023-02-14T01:24:56.400Z,0.84
2023-02-14T01:25:56.468Z,0.84
2023-02-14T01:26:56.478Z,0.83
2023-02-14T01:27:56.573Z,0.84
2023-02-14T01:28:56.642Z,0.83
2023-02-14T01:29:56.712Z,0.83
2023-02-14T01:30:56.834Z,0.84
2023-02-14T01:31:56.905Z,0.82
2023-02-14T01:32:56.864Z,0.82
2023-02-14T01:33:56.986Z,0.82
2023-02-14T01:34:57.017Z,0.83
2023-02-14T01:35:57.057Z,0.83
2023-02-14T01:36:57.135Z,0.82
2023-02-14T01:37:57.164Z,0.82
2023-02-14T01:38:57.244Z,0.81
2023-02-14T01:39:57.325Z,0.82
2023-02-14T01:40:57.675Z,0.82
2023-02-14T01:41:57.452Z,0.83
2023-02-14T01:42:57.490Z,0.81
2023-02-14T01:43:57.575Z,0.81
2023-02-14T01:44:57.609Z,0.81
2023-02-14T01:45:57.732Z,0.81
2023-02-14T01:46:57.735Z,0.81
2023-02-14T01:47:57.882Z,0.82
2023-02-14T01:48:57.913Z,0.81
2023-02-14T01:49:57.955Z,0.82
2023-02-14T01:50:58.377Z,0.80
2023-02-14T01:51:58.050Z,0.80
2023-02-14T01:52:58.128Z,0.83
2023-02-14T01:53:58.206Z,0.81
2023-02-14T01:54:58.256Z,0.80
2023-02-14T01:55:58.294Z,0.79
2023-02-14T01:56:58.365Z,0.80
2023-02-14T01:57:58.438Z,0.79
2023-02-14T01:58:58.487Z,0.79
2023-02-14T01:59:58.538Z,0.81
2023-02-14T02:00:59.191Z,0.79
2023-02-14T02:01:58.694Z,0.78
2023-02-14T02:02:58.693Z,0.79
2023-02-14T02:03:58.716Z,0.80
2023-02-14T02:04:58.787Z,0.79
2023-02-14T02:05:58.839Z,0.79
2023-02-14T02:06:58.902Z,0.78
2023-02-14T02:07:58.961Z,0.79
2023-02-14T02:08:59.016Z,0.78
2023-02-14T02:09:59.035Z,0.80
2023-02-14T02:10:59.424Z,0.78
2023-02-14T02:11:59.175Z,0.78
2023-02-14T02:12:59.251Z,0.78
2023-02-14T02:13:59.307Z,0.78
2023-02-14T02:14:59.335Z,0.80
2023-02-14T02:15:59.421Z,0.78
2023-02-14T02:16:59.512Z,0.79
2023-02-14T02:17:59.493Z,0.78
2023-02-14T02:18:59.582Z,0.79
2023-02-14T02:19:59.621Z,0.78
2023-02-14T02:20:59.938Z,0.79
2023-02-14T02:21:59.684Z,0.79
2023-02-14T02:22:59.737Z,0.79
2023-02-14T02:23:59.775Z,0.79
2023-02-14T02:24:59.811Z,0.77
2023-02-14T02:25:59.838Z,0.76
2023-02-14T02:26:59.902Z,0.77
2023-02-14T02:27:59.933Z,0.78
2023-02-14T02:29:00.027Z,0.77
2023-02-14T02:30:00.101Z,0.78
2023-02-14T02:31:00.524Z,0.78
2023-02-14T02:32:00.268Z,0.76
2023-02-14T02:33:00.215Z,0.78
2023-02-14T02:34:00.265Z,0.78
2023-02-14T02:35:00.249Z,0.77
2023-02-14T02:36:00.297Z,0.77
2023-02-14T02:37:00.301Z,0.76
2023-02-14T02:38:00.347Z,0.77
2023-02-14T02:39:00.403Z,0.77
2023-02-14T02:40:00.415Z,0.76
2023-02-14T02:41:00.819Z,0.75
2023-02-14T02:42:00.466Z,0.78
2023-02-14T02:43:00.495Z,0.77
2023-02-14T02:44:01.878Z,0.75
2023-02-14T02:45:00.564Z,0.78
2023-02-14T02:46:00.585Z,0.77
2023-02-14T02:48:00.592Z,0.76
2023-02-14T02:49:00.581Z,0.76
2023-02-14T02:50:00.613Z,0.77
2023-02-14T02:51:00.937Z,0.76
2023-02-14T02:52:00.641Z,0.77
2023-02-14T02:53:00.636Z,0.77
2023-02-14T02:54:00.650Z,0.76
2023-02-14T02:55:00.648Z,0.76
2023-02-14T02:56:00.632Z,0.76
2023-02-14T02:57:00.624Z,0.76
2023-02-14T02:58:00.591Z,0.74
2023-02-14T02:59:00.638Z,0.76
2023-02-14T03:00:00.635Z,0.74
2023-02-14T03:01:01.051Z,0.76
2023-02-14T03:02:00.632Z,0.74
2023-02-14T03:03:00.772Z,0.74
2023-02-14T03:04:00.642Z,0.77
2023-02-14T03:05:00.685Z,0.75
2023-02-14T03:06:00.633Z,0.73
2023-02-14T03:07:00.651Z,0.74
2023-02-14T03:08:00.643Z,0.74
2023-02-14T03:09:00.652Z,0.73
2023-02-14T03:10:00.626Z,0.75
2023-02-14T03:11:01.017Z,0.74
2023-02-14T03:12:00.661Z,0.73
2023-02-14T03:13:00.672Z,0.74
2023-02-14T03:14:00.675Z,0.75
2023-02-14T03:15:00.692Z,0.74
2023-02-14T03:16:00.685Z,0.74
2023-02-14T03:17:00.692Z,0.75
2023-02-14T03:18:00.731Z,0.73
2023-02-14T03:19:00.671Z,0.74
2023-02-14T03:20:00.711Z,0.74
2023-02-14T03:21:01.080Z,0.73
2023-02-14T03:22:00.687Z,0.74
2023-02-14T03:23:00.751Z,0.74
2023-02-14T03:24:00.702Z,0.74
2023-02-14T03:25:00.685Z,0.74
2023-02-14T03:26:00.717Z,0.75
2023-02-14T03:27:00.718Z,0.73
2023-02-14T03:28:00.702Z,0.73
2023-02-14T03:29:00.740Z,0.74
2023-02-14T03:30:00.770Z,0.74
2023-02-14T03:31:01.138Z,0.73
2023-02-14T03:32:00.869Z,0.73
2023-02-14T03:33:00.715Z,0.74
2023-02-14T03:34:00.787Z,0.72
2023-02-14T03:35:00.734Z,0.73
2023-02-14T03:36:00.720Z,0.72
2023-02-14T03:37:00.748Z,0.73
2023-02-14T03:38:00.757Z,0.72
2023-02-14T03:39:00.740Z,0.72
2023-02-14T03:40:00.767Z,0.71
2023-02-14T03:41:01.091Z,0.72
2023-02-14T03:42:00.778Z,0.71
2023-02-14T03:43:00.777Z,0.73
2023-02-14T03:44:00.759Z,0.72
2023-02-14T03:45:00.836Z,0.72
2023-02-14T03:46:00.799Z,0.72
2023-02-14T03:47:00.773Z,0.73
2023-02-14T03:48:00.765Z,0.72
2023-02-14T03:49:00.779Z,0.72
2023-02-14T03:50:00.751Z,0.72
2023-02-14T03:51:01.097Z,0.72
2023-02-14T03:52:00.791Z,0.70
2023-02-14T03:53:00.758Z,0.70
2023-02-14T03:54:00.805Z,0.71
2023-02-14T03:55:00.762Z,0.71
2023-02-14T03:56:00.778Z,0.73
2023-02-14T03:57:00.748Z,0.71
2023-02-14T03:58:00.784Z,0.70
2023-02-14T03:59:00.744Z,0.71
2023-02-14T04:00:00.765Z,0.70
2023-02-14T04:01:01.193Z,0.71
2023-02-14T04:02:00.802Z,0.70
2023-02-14T04:18:00.822Z,0.68
2023-02-14T04:19:00.967Z,0.69
2023-02-14T04:20:00.958Z,0.70
2023-02-14T04:21:01.402Z,0.68
2023-02-14T04:22:01.138Z,0.68
2023-02-14T04:23:03.341Z,0.69
2023-02-14T04:24:01.154Z,0.68
2023-02-14T04:25:01.181Z,0.69
2023-02-14T04:26:01.258Z,0.70
2023-02-14T04:27:01.288Z,0.68
2023-02-14T04:28:01.350Z,0.69
2023-02-14T04:29:01.385Z,0.69
2023-02-14T04:30:01.462Z,0.69
2023-02-14T04:31:02.013Z,0.67
2023-02-14T04:32:01.605Z,0.69
2023-02-14T04:33:01.483Z,0.69
2023-02-14T04:34:01.492Z,0.69
2023-02-14T04:35:01.500Z,0.69
2023-02-14T04:36:01.519Z,0.68
2023-02-14T04:37:01.591Z,0.67
2023-02-14T04:38:01.601Z,0.67
2023-02-14T04:39:01.672Z,0.69
2023-02-14T04:40:01.665Z,0.68
2023-02-14T04:41:02.142Z,0.67
2023-02-14T04:42:01.704Z,0.67
2023-02-14T04:43:01.771Z,0.67
2023-02-14T04:44:01.792Z,0.66
2023-02-14T04:45:04.116Z,0.66
2023-02-14T04:46:01.939Z,0.66
2023-02-14T04:47:01.961Z,0.68
2023-02-14T04:48:02.013Z,0.67
2023-02-14T04:49:02.053Z,0.67
2023-02-14T04:50:02.087Z,0.66
2023-02-14T04:51:02.305Z,0.66
2023-02-14T04:52:02.142Z,0.66
2023-02-14T04:53:02.169Z,0.67
2023-02-14T04:54:02.236Z,0.67
2023-02-14T04:55:02.235Z,0.67
2023-02-14T04:56:02.257Z,0.65
2023-02-14T04:57:02.320Z,0.66
2023-02-14T04:58:02.374Z,0.66
2023-02-14T04:59:02.401Z,0.66
2023-02-14T05:00:02.420Z,0.66
2023-02-14T05:01:03.055Z,0.65
2023-02-14T05:02:02.485Z,0.66
2023-02-14T05:03:02.443Z,0.65
2023-02-14T05:04:02.499Z,0.64
2023-02-14T05:05:02.457Z,0.65
2023-02-14T05:06:02.527Z,0.63
2023-02-14T05:07:02.505Z,0.65
2023-02-14T05:08:02.511Z,0.63
2023-02-14T05:09:02.528Z,0.63
2023-02-14T05:10:02.525Z,0.64
2023-02-14T05:11:02.581Z,0.63
2023-02-14T05:12:02.596Z,0.63
2023-02-14T05:13:02.552Z,0.63
2023-02-14T05:14:02.575Z,0.64
2023-02-14T05:15:02.587Z,0.63
2023-02-14T05:16:02.702Z,0.63
2023-02-14T05:17:02.605Z,0.63
2023-02-14T05:18:02.657Z,0.63
2023-02-14T05:19:02.664Z,0.65
2023-02-14T05:20:02.645Z,0.64
2023-02-14T05:21:02.761Z,0.63
2023-02-14T05:22:02.650Z,0.64
2023-02-14T05:23:02.693Z,0.63
2023-02-14T05:24:02.701Z,0.65
2023-02-14T05:25:02.685Z,0.64
2023-02-14T05:26:02.718Z,0.63
2023-02-14T05:27:02.779Z,0.64
2023-02-14T05:28:02.755Z,0.63
2023-02-14T05:29:02.763Z,0.63
2023-02-14T05:30:02.890Z,0.65
2023-02-14T05:31:03.362Z,0.63
2023-02-14T05:32:02.802Z,0.63
2023-02-14T05:33:03.721Z,0.65
2023-02-14T05:34:02.847Z,0.64
2023-02-14T05:35:02.878Z,0.63
2023-02-14T05:36:02.895Z,0.63
2023-02-14T05:37:02.922Z,0.62
2023-02-14T05:38:02.897Z,0.63
2023-02-14T05:39:02.967Z,0.62
2023-02-14T05:40:02.963Z,0.65
2023-02-14T05:41:02.978Z,0.65
2023-02-14T05:42:02.985Z,0.64
2023-02-14T05:43:03.022Z,0.65
2023-02-14T05:44:03.032Z,0.64
2023-02-14T05:45:03.049Z,0.65
2023-02-14T05:46:03.119Z,0.64
2023-02-14T05:47:03.058Z,0.65
2023-02-14T05:48:03.069Z,0.65
2023-02-14T05:49:03.096Z,0.65
2023-02-14T05:50:03.137Z,0.64
2023-02-14T05:51:03.136Z,0.65
2023-02-14T05:52:03.149Z,0.65
2023-02-14T05:53:03.266Z,0.66
2023-02-14T05:54:03.183Z,0.65
2023-02-14T05:55:03.166Z,0.66
2023-02-14T05:56:03.204Z,0.66
2023-02-14T05:57:03.212Z,0.66
2023-02-14T05:58:03.234Z,0.66
2023-02-14T05:59:03.229Z,0.66
2023-02-14T06:01:22.198Z,0.50
2023-02-14T06:02:22.236Z,0.50
2023-02-14T06:03:22.199Z,0.50
2023-02-14T06:04:22.283Z,0.50
2023-02-14T06:05:22.141Z,0.50
2023-02-14T06:06:22.162Z,0.51
2023-02-14T06:07:22.172Z,0.51
2023-02-14T06:08:22.147Z,0.50
2023-02-14T06:09:22.142Z,0.50
2023-02-14T06:10:22.103Z,0.51
2023-02-14T06:11:22.097Z,0.52
2023-02-14T06:12:22.109Z,0.51
2023-02-14T06:13:22.032Z,0.51
2023-02-14T06:14:22.042Z,0.52
2023-02-14T06:15:22.024Z,0.51
2023-02-14T06:16:22.017Z,0.51
2023-02-14T06:17:21.995Z,0.51
2023-02-14T06:18:21.922Z,0.51
2023-02-14T06:19:21.952Z,0.50
2023-02-14T06:20:21.906Z,0.52
2023-02-14T06:21:21.891Z,0.52
2023-02-14T06:22:21.926Z,0.51
2023-02-14T06:23:21.862Z,0.51
2023-02-14T06:24:21.888Z,0.51
2023-02-14T06:25:21.850Z,0.52
2023-02-14T06:26:21.805Z,0.52
2023-02-14T06:27:21.871Z,0.51
2023-02-14T06:28:21.802Z,0.52
2023-02-14T06:29:21.816Z,0.52
2023-02-14T06:30:21.826Z,0.51
2023-02-14T06:31:21.826Z,0.52
2023-02-14T06:32:21.723Z,0.51
2023-02-14T06:33:21.848Z,0.52
2023-02-14T06:34:21.737Z,0.52
2023-02-14T06:35:21.709Z,0.52
2023-02-14T06:36:21.655Z,0.52
2023-02-14T06:37:21.613Z,0.51
2023-02-14T06:38:21.659Z,0.51
2023-02-14T06:39:21.651Z,0.51
2023-02-14T06:40:21.603Z,0.51
2023-02-14T06:41:21.590Z,0.52
2023-02-14T06:42:21.563Z,0.51
2023-02-14T06:43:21.581Z,0.52
2023-02-14T06:44:21.566Z,0.51
2023-02-14T06:45:21.545Z,0.52
2023-02-14T06:46:21.598Z,0.52
2023-02-14T06:47:21.487Z,0.53
2023-02-14T06:48:21.485Z,0.51
2023-02-14T06:49:21.496Z,0.51
2023-02-14T06:50:21.473Z,0.50
2023-02-14T06:51:21.431Z,0.51
2023-02-14T06:52:21.411Z,0.52
2023-02-14T06:53:21.441Z,0.51
2023-02-14T06:54:21.435Z,0.52
2023-02-14T06:55:21.391Z,0.50
2023-02-14T06:56:21.409Z,0.52
2023-02-14T06:57:21.341Z,0.52
2023-02-14T06:58:21.359Z,0.51
2023-02-14T06:59:21.361Z,0.52
2023-02-14T07:00:21.307Z,0.52
2023-02-14T07:01:21.349Z,0.51
2023-02-14T07:02:24.285Z,0.51
2023-02-14T07:03:21.276Z,0.53
2023-02-14T07:04:21.284Z,0.53
2023-02-14T07:05:21.300Z,0.51
2023-02-14T07:06:21.244Z,0.51
2023-02-14T07:07:21.218Z,0.52
2023-02-14T07:08:21.205Z,0.52
2023-02-14T07:09:21.198Z,0.50
2023-02-14T07:10:21.180Z,0.53
2023-02-14T07:11:21.174Z,0.52
2023-02-14T07:12:21.167Z,0.51
2023-02-14T07:13:21.193Z,0.52
2023-02-14T07:14:21.163Z,0.52
2023-02-14T07:15:21.160Z,0.53
2023-02-14T07:16:21.142Z,0.52
2023-02-14T07:17:21.121Z,0.52
2023-02-14T07:18:21.113Z,0.51
2023-02-14T07:19:21.086Z,0.53
2023-02-14T07:20:21.148Z,0.53
2023-02-14T07:21:21.077Z,0.51
2023-02-14T07:22:21.064Z,0.52
2023-02-14T07:23:21.040Z,0.51
2023-02-14T07:24:21.027Z,0.53
2023-02-14T07:25:21.064Z,0.52
2023-02-14T07:26:20.979Z,0.51
2023-02-14T07:27:20.986Z,0.52
2023-02-14T07:28:20.980Z,0.52
2023-02-14T07:29:20.961Z,0.52
2023-02-14T07:30:21.115Z,0.52
2023-02-14T07:38:20.847Z,0.53
2023-02-14T07:39:20.856Z,0.54
2023-02-14T07:40:20.810Z,0.54
2023-02-14T07:41:20.829Z,0.53
2023-02-14T07:42:20.788Z,0.54
2023-02-14T07:43:20.784Z,0.53
2023-02-14T07:44:20.793Z,0.54
2023-02-14T07:45:22.166Z,0.54
2023-02-14T07:46:20.795Z,0.54
2023-02-14T07:47:20.725Z,0.54
2023-02-14T07:48:20.708Z,0.55
2023-02-14T07:49:20.715Z,0.55
2023-02-14T07:50:20.716Z,0.54
2023-02-14T07:51:20.690Z,0.53
2023-02-14T07:52:20.708Z,0.54
2023-02-14T07:53:20.640Z,0.55
2023-02-14T07:55:20.659Z,0.54
2023-02-14T07:56:20.576Z,0.55
2023-02-14T07:57:20.604Z,0.54
2023-02-14T07:58:20.636Z,0.54
2023-02-14T07:59:20.661Z,0.54
2023-02-14T08:00:20.564Z,0.53
2023-02-14T08:01:20.573Z,0.54
2023-02-14T08:02:20.532Z,0.54
2023-02-14T08:03:20.514Z,0.54
2023-02-14T08:04:20.557Z,0.54
2023-02-14T08:05:20.569Z,0.54
2023-02-14T08:06:20.495Z,0.54
2023-02-14T08:07:21.436Z,0.54
2023-02-14T08:08:20.473Z,0.55
2023-02-14T08:09:20.459Z,0.56
2023-02-14T08:10:20.439Z,0.55
2023-02-14T08:11:20.429Z,0.54
2023-02-14T08:12:20.391Z,0.54
2023-02-14T08:13:20.448Z,0.54
2023-02-14T08:14:20.363Z,0.54
2023-02-14T08:15:20.341Z,0.54
2023-02-14T08:16:20.340Z,0.54
2023-02-14T08:17:20.299Z,0.55
2023-02-14T08:18:20.281Z,0.54
2023-02-14T08:19:20.319Z,0.54
2023-02-14T08:20:20.263Z,0.54
2023-02-14T08:21:20.250Z,0.54
2023-02-14T08:22:20.248Z,0.53
2023-02-14T08:23:20.259Z,0.53
2023-02-14T08:24:20.231Z,0.53
2023-02-14T08:25:20.275Z,0.54
2023-02-14T08:26:20.180Z,0.56
2023-02-14T08:27:20.180Z,0.55
2023-02-14T08:28:20.950Z,0.57
2023-02-14T08:29:20.146Z,0.56
2023-02-14T08:30:20.253Z,0.56
2023-02-14T08:31:29.986Z,0.57
2023-02-14T08:32:21.302Z,0.57
2023-02-14T08:33:20.100Z,0.57
2023-02-14T08:34:20.093Z,0.57
2023-02-14T08:35:20.075Z,0.57
2023-02-14T08:36:20.056Z,0.58
2023-02-14T08:37:20.110Z,0.57
2023-02-14T08:38:20.073Z,0.56
2023-02-14T08:39:20.036Z,0.56
2023-02-14T08:40:20.005Z,0.57
2023-02-14T08:41:19.996Z,0.56
2023-02-14T08:42:20.013Z,0.56
2023-02-14T08:43:20.038Z,0.55
2023-02-14T08:44:19.952Z,0.55
2023-02-14T08:45:19.948Z,0.55
2023-02-14T08:46:19.973Z,0.54
2023-02-14T08:47:19.947Z,0.54
2023-02-14T08:48:19.900Z,0.55
2023-02-14T08:49:19.876Z,0.54
2023-02-14T08:50:19.887Z,0.54
2023-02-14T08:51:19.867Z,0.54
2023-02-14T08:52:19.843Z,0.54
2023-02-14T08:53:19.821Z,0.54
2023-02-14T08:54:19.815Z,0.55
2023-02-14T08:55:19.762Z,0.56
2023-02-14T08:56:19.762Z,0.57
2023-02-14T08:57:19.792Z,0.58
2023-02-14T08:58:19.763Z,0.57
2023-02-14T08:59:19.725Z,0.60
2023-02-14T09:00:19.727Z,0.60
2023-02-14T09:01:19.799Z,0.59
2023-02-14T09:02:19.693Z,0.58
2023-02-14T09:03:19.677Z,0.59
2023-02-14T09:04:19.682Z,0.60
2023-02-14T09:05:19.664Z,0.61
2023-02-14T09:06:19.608Z,0.61
2023-02-14T09:07:19.613Z,0.64
2023-02-14T09:08:19.577Z,0.67
2023-02-14T09:09:19.584Z,0.72
2023-02-14T09:10:19.552Z,0.76
2023-02-14T09:11:19.555Z,0.79
2023-02-14T09:12:19.580Z,0.83
2023-02-14T09:13:19.538Z,0.84
2023-02-14T09:14:19.567Z,0.86
2023-02-14T09:15:19.623Z,0.83
2023-02-14T09:16:19.597Z,0.81
2023-02-14T09:17:19.535Z,0.81
2023-02-14T09:18:19.547Z,0.79
2023-02-14T09:19:19.516Z,0.81
2023-02-14T09:20:19.593Z,0.79
2023-02-14T09:21:19.529Z,0.76
2023-02-14T09:22:19.531Z,0.75
2023-02-14T09:23:19.499Z,0.75
2023-02-14T09:24:19.539Z,0.76
2023-02-14T09:25:19.529Z,0.74
2023-02-14T09:26:19.541Z,0.75
2023-02-14T09:27:19.547Z,0.74
2023-02-14T09:28:19.534Z,0.74
2023-02-14T09:29:19.551Z,0.72
2023-02-14T09:30:19.579Z,0.73
2023-02-14T09:31:19.633Z,0.72
2023-02-14T09:32:19.582Z,0.71
2023-02-14T09:33:19.591Z,0.70
2023-02-14T09:34:19.564Z,0.69
2023-02-14T09:35:19.545Z,0.70
2023-02-14T09:36:19.585Z,0.69
2023-02-14T09:37:19.543Z,0.68
2023-02-14T09:38:19.524Z,0.66
2023-02-14T09:39:19.533Z,0.68
2023-02-14T09:40:19.516Z,0.67
2023-02-14T09:41:19.516Z,0.69
2023-02-14T09:42:19.551Z,0.65
2023-02-14T09:43:19.543Z,0.64
2023-02-14T09:44:19.551Z,0.64
2023-02-14T09:45:19.538Z,0.64
2023-02-14T09:46:19.608Z,0.62
2023-02-14T09:47:19.499Z,0.63
2023-02-14T09:48:19.515Z,0.62
2023-02-14T09:49:19.616Z,0.63
2023-02-14T09:50:19.557Z,0.62
2023-02-14T09:51:19.528Z,0.62
2023-02-14T09:52:19.516Z,0.61
2023-02-14T09:53:19.536Z,0.62
2023-02-14T09:54:19.530Z,0.63
2023-02-14T09:55:19.540Z,0.62
2023-02-14T09:56:19.542Z,0.64
2023-02-14T09:57:19.495Z,0.63
2023-02-14T09:58:19.518Z,0.64
2023-02-14T09:59:19.532Z,0.63
2023-02-14T10:00:19.526Z,0.64
2023-02-14T10:01:19.565Z,0.63
2023-02-14T10:02:19.513Z,0.64
2023-02-14T10:03:19.504Z,0.63
2023-02-14T10:04:19.485Z,0.63
2023-02-14T10:05:19.499Z,0.63
2023-02-14T10:06:19.470Z,0.63
2023-02-14T10:07:19.433Z,0.62
2023-02-14T10:08:19.433Z,0.64
2023-02-14T10:09:19.431Z,0.63
2023-02-14T10:10:19.426Z,0.62
2023-02-14T10:11:19.419Z,0.63
2023-02-14T10:12:19.405Z,0.62
2023-02-14T10:13:19.420Z,0.61
2023-02-14T10:14:19.407Z,0.62
2023-02-14T10:15:19.419Z,0.61
2023-02-14T10:16:19.472Z,0.62
2023-02-14T10:17:19.397Z,0.63
2023-02-14T10:18:19.381Z,0.61
2023-02-14T10:19:19.400Z,0.60
2023-02-14T10:20:19.448Z,0.62
2023-02-14T10:21:19.365Z,0.61
2023-02-14T10:22:19.385Z,0.61
2023-02-14T10:23:19.369Z,0.61
2023-02-14T10:24:19.382Z,0.61
2023-02-14T10:25:19.350Z,0.62
2023-02-14T10:26:19.411Z,0.63
2023-02-14T10:27:19.334Z,0.62
2023-02-14T10:28:19.342Z,0.62
2023-02-14T10:29:19.348Z,0.62
2023-02-14T10:30:19.425Z,0.61
2023-02-14T10:31:19.522Z,0.62
2023-02-14T10:32:19.428Z,0.62
2023-02-14T10:33:19.401Z,0.62
2023-02-14T10:34:19.445Z,0.62
2023-02-14T10:35:19.457Z,0.61
2023-02-14T10:36:19.471Z,0.62
2023-02-14T10:37:19.500Z,0.63
2023-02-14T10:38:19.544Z,0.63
2023-02-14T10:39:19.556Z,0.66
2023-02-14T10:40:19.553Z,0.64
2023-02-14T10:41:19.558Z,0.67
2023-02-14T10:42:19.576Z,0.68
2023-02-14T10:43:19.575Z,0.69
2023-02-14T10:44:19.586Z,0.72
2023-02-14T10:45:19.623Z,0.76
2023-02-14T10:46:19.673Z,0.76
2023-02-14T10:47:19.629Z,0.74
2023-02-14T10:48:19.661Z,0.74
2023-02-14T10:49:19.685Z,0.74
2023-02-14T10:50:19.716Z,0.73
2023-02-14T10:51:19.687Z,0.74
2023-02-14T10:52:19.727Z,0.73
2023-02-14T10:53:19.795Z,0.72
2023-02-14T10:54:19.817Z,0.71
2023-02-14T10:55:31.395Z,0.70
2023-02-14T10:56:20.832Z,0.70
2023-02-14T10:57:19.767Z,0.69
2023-02-14T10:58:19.745Z,0.70
2023-02-14T10:59:19.736Z,0.70
2023-02-14T11:00:19.737Z,0.69
2023-02-14T11:01:19.754Z,0.68
2023-02-14T11:02:19.678Z,0.70
2023-02-14T11:03:19.694Z,0.69
2023-02-14T11:04:19.657Z,0.68
2023-02-14T11:05:19.669Z,0.69
2023-02-14T11:06:19.637Z,0.70
2023-02-14T11:07:19.613Z,0.70
2023-02-14T11:08:19.578Z,0.70
2023-02-14T11:09:19.627Z,0.70
2023-02-14T11:10:19.553Z,0.68
2023-02-14T11:11:19.561Z,0.69
2023-02-14T11:12:19.522Z,0.68
2023-02-14T11:13:19.520Z,0.68
2023-02-14T11:15:19.479Z,0.71
2023-02-14T11:16:19.562Z,0.71
2023-02-14T11:17:19.541Z,0.68
2023-02-14T11:18:19.618Z,0.70
2023-02-14T11:19:19.660Z,0.69
2023-02-14T11:20:19.694Z,0.70
2023-02-14T11:21:19.672Z,0.71
2023-02-14T11:22:19.643Z,0.72
2023-02-14T11:23:19.703Z,0.70
2023-02-14T11:24:19.736Z,0.69
2023-02-14T11:25:19.781Z,0.70
2023-02-14T11:26:19.817Z,0.70
2023-02-14T11:27:19.840Z,0.71
2023-02-14T11:28:19.899Z,0.72
2023-02-14T11:29:19.924Z,0.74
2023-02-14T11:30:20.002Z,0.76
2023-02-14T11:31:20.041Z,0.74
2023-02-14T11:32:19.984Z,0.75
2023-02-14T11:33:19.968Z,0.75
2023-02-14T11:34:19.986Z,0.76
2023-02-14T11:35:20.092Z,0.78
2023-02-14T11:36:20.017Z,0.76
2023-02-14T11:37:20.029Z,0.75
2023-02-14T11:38:20.025Z,0.74
2023-02-14T11:39:21.887Z,0.73
2023-02-14T11:40:20.085Z,0.74
2023-02-14T11:41:20.120Z,0.74
2023-02-14T11:42:20.125Z,0.74
2023-02-14T11:43:20.157Z,0.73
2023-02-14T11:44:20.240Z,0.75
2023-02-14T11:45:20.222Z,0.72
2023-02-14T11:46:20.323Z,0.71
2023-02-14T11:47:20.312Z,0.69
2023-02-14T11:48:31.413Z,0.71
2023-02-14T11:49:21.297Z,0.71
2023-02-14T11:50:20.285Z,0.69
2023-02-14T11:51:20.253Z,0.66
2023-02-14T11:52:20.241Z,0.66
2023-02-14T11:53:20.247Z,0.65
2023-02-14T11:54:20.221Z,0.64
2023-02-14T11:55:20.194Z,0.63
2023-02-14T11:56:20.225Z,0.62
2023-02-14T11:57:20.175Z,0.59
2023-02-14T11:58:20.126Z,0.61
2023-02-14T11:59:20.138Z,0.62
2023-02-14T12:00:20.151Z,0.62
2023-02-14T12:01:20.092Z,0.57
2023-02-14T12:02:20.109Z,0.57
2023-02-14T12:03:20.236Z,0.59
2023-02-14T12:04:20.073Z,0.60
2023-02-14T12:05:20.055Z,0.61
2023-02-14T12:06:20.022Z,0.60
2023-02-14T12:07:20.001Z,0.60
2023-02-14T12:08:19.997Z,0.59
2023-02-14T12:09:20.083Z,0.60
2023-02-14T12:10:20.049Z,0.58
2023-02-14T12:11:20.104Z,0.58
2023-02-14T12:12:20.139Z,0.59
2023-02-14T12:13:20.132Z,0.58
2023-02-14T12:14:20.136Z,0.58
2023-02-14T12:15:20.143Z,0.57
2023-02-14T12:16:20.184Z,0.58
2023-02-14T12:17:20.263Z,0.58
2023-02-14T12:18:20.218Z,0.60
2023-02-14T12:19:20.207Z,0.60
2023-02-14T12:20:20.217Z,0.61
2023-02-14T12:21:20.272Z,0.62
2023-02-14T12:22:20.291Z,0.62
2023-02-14T12:23:20.306Z,0.64
2023-02-14T12:24:20.358Z,0.63
2023-02-14T12:25:20.351Z,0.63
2023-02-14T12:26:20.346Z,0.64
2023-02-14T12:27:20.366Z,0.62
2023-02-14T12:28:20.458Z,0.63
2023-02-14T12:29:20.437Z,0.63
2023-02-14T12:30:20.497Z,0.62
2023-02-14T12:31:20.640Z,0.62
2023-02-14T12:32:20.566Z,0.59
2023-02-14T12:33:20.504Z,0.59
2023-02-14T12:34:20.529Z,0.58
2023-02-14T12:35:20.504Z,0.58
2023-02-14T12:36:20.510Z,0.56
2023-02-14T12:37:20.619Z,0.57
2023-02-14T12:38:20.513Z,0.55
2023-02-14T12:39:20.513Z,0.56
2023-02-14T12:40:20.583Z,0.56
2023-02-14T12:41:20.592Z,0.55
2023-02-14T12:42:20.609Z,0.55
2023-02-14T12:43:20.613Z,0.55
2023-02-14T12:44:20.610Z,0.54
2023-02-14T12:45:20.605Z,0.53
2023-02-14T12:46:20.621Z,0.54
2023-02-14T12:47:20.621Z,0.52
2023-02-14T12:48:20.582Z,0.52
2023-02-14T12:49:20.569Z,0.53
2023-02-14T12:50:20.591Z,0.50
2023-02-14T12:51:20.556Z,0.51
2023-02-14T12:52:20.575Z,0.56
2023-02-14T12:53:20.607Z,0.55
2023-02-14T12:54:20.623Z,0.54
2023-02-14T12:55:20.647Z,0.52
2023-02-14T12:56:20.677Z,0.53
2023-02-14T12:57:20.661Z,0.52
2023-02-14T12:58:20.700Z,0.52
2023-02-14T12:59:20.755Z,0.53
2023-02-14T13:00:20.809Z,0.53
2023-02-14T13:01:28.558Z,0.54
2023-02-14T13:02:21.787Z,0.54
2023-02-14T13:03:20.766Z,0.54
2023-02-14T13:04:20.748Z,0.54
2023-02-14T13:05:20.695Z,0.55
2023-02-14T13:06:20.706Z,0.56
2023-02-14T13:07:20.683Z,0.56
2023-02-14T13:08:20.638Z,0.56
2023-02-14T13:09:20.659Z,0.56
2023-02-14T13:10:20.625Z,0.52
2023-02-14T13:11:20.579Z,0.53
2023-02-14T13:12:20.619Z,0.52
2023-02-14T13:13:20.572Z,0.52
2023-02-14T13:14:20.611Z,0.53
2023-02-14T13:15:20.533Z,0.54
2023-02-14T13:16:20.545Z,0.53
2023-02-14T13:17:20.541Z,0.53
2023-02-14T13:18:20.504Z,0.54
2023-02-14T13:19:20.474Z,0.55
2023-02-14T13:20:20.490Z,0.57
2023-02-14T13:21:20.481Z,0.61
2023-02-14T13:22:20.440Z,0.71
2023-02-14T13:23:20.396Z,0.91
2023-02-14T13:24:20.406Z,1.23
2023-02-14T13:25:20.394Z,1.45
2023-02-14T13:26:20.379Z,1.58
2023-02-14T13:27:22.133Z,1.62
2023-02-14T13:28:20.326Z,1.73
2023-02-14T13:29:20.329Z,1.70
2023-02-14T13:30:20.442Z,1.67
2023-02-14T13:31:20.382Z,1.64
2023-02-14T13:32:20.287Z,1.64
2023-02-14T13:33:20.258Z,1.77
2023-02-14T13:34:20.291Z,1.74
2023-02-14T13:35:20.251Z,1.76
2023-02-14T13:36:20.245Z,1.65
2023-02-14T13:37:20.265Z,1.54
2023-02-14T13:38:20.235Z,1.44
2023-02-14T13:39:20.248Z,1.39
2023-02-14T13:40:20.233Z,1.47
2023-02-14T13:41:20.228Z,1.43
2023-02-14T13:42:20.274Z,1.38
2023-02-14T13:43:20.238Z,1.34
2023-02-14T13:44:20.252Z,1.33
2023-02-14T13:45:20.252Z,1.30
2023-02-14T13:46:20.306Z,1.30
2023-02-14T13:47:20.279Z,1.30
2023-02-14T13:48:20.276Z,1.31
2023-02-14T13:49:20.245Z,1.31
2023-02-14T13:50:20.233Z,1.36
2023-02-14T13:51:20.242Z,1.33
2023-02-14T13:52:20.404Z,1.37
2023-02-14T13:53:20.241Z,1.49
2023-02-14T13:54:20.238Z,1.43
2023-02-14T13:55:20.255Z,1.37
2023-02-14T13:56:20.235Z,1.40
2023-02-14T13:57:20.220Z,1.36
2023-02-14T13:58:20.236Z,1.34
2023-02-14T13:59:20.212Z,1.32
2023-02-14T14:00:20.216Z,1.34
2023-02-14T14:01:20.266Z,1.34
2023-02-14T14:02:20.264Z,1.40
2023-02-14T14:03:20.198Z,1.32
2023-02-14T14:04:20.236Z,1.32
2023-02-14T14:05:20.220Z,1.28
2023-02-14T14:06:20.224Z,1.31
2023-02-14T14:07:20.224Z,1.26
2023-02-14T14:08:20.282Z,1.26
2023-02-14T14:09:20.241Z,1.29
2023-02-14T14:10:20.216Z,1.24
2023-02-14T14:11:20.215Z,1.22
2023-02-14T14:12:20.217Z,1.22
2023-02-14T14:13:20.296Z,1.32
2023-02-14T14:14:20.347Z,1.34
2023-02-14T14:15:20.401Z,1.30
2023-02-14T14:16:20.510Z,1.21
2023-02-14T14:17:20.514Z,1.27
2023-02-14T14:18:20.492Z,1.19
2023-02-14T14:19:20.524Z,1.19
2023-02-14T14:20:20.652Z,1.20
2023-02-14T14:21:20.539Z,1.16
2023-02-14T14:22:20.527Z,1.15
2023-02-14T14:23:20.554Z,1.20
2023-02-14T14:24:20.509Z,1.19
2023-02-14T14:25:20.529Z,1.15
2023-02-14T14:26:20.521Z,1.14
2023-02-14T14:27:20.504Z,1.14
2023-02-14T14:28:20.618Z,1.14
2023-02-14T14:29:20.519Z,1.13
2023-02-14T14:30:20.581Z,1.14
2023-02-14T14:31:20.708Z,1.23
2023-02-14T14:32:20.564Z,1.26
2023-02-14T14:33:20.495Z,1.16
2023-02-14T14:34:20.520Z,1.10
2023-02-14T14:35:20.521Z,1.23
2023-02-14T14:36:20.543Z,1.27
2023-02-14T14:37:20.522Z,1.09
2023-02-14T14:38:20.545Z,1.13
2023-02-14T14:39:20.549Z,1.23
2023-02-14T14:40:20.558Z,1.19
2023-02-14T14:41:20.563Z,1.12
2023-02-14T14:42:20.557Z,1.18
2023-02-14T14:43:20.571Z,1.20
2023-02-14T14:44:20.590Z,1.10
2023-02-14T14:45:20.616Z,1.08
2023-02-14T14:46:20.622Z,1.06
2023-02-14T14:47:20.607Z,1.06
2023-02-14T14:48:20.642Z,1.13
2023-02-14T14:49:20.608Z,1.12
2023-02-14T14:50:20.617Z,1.19
2023-02-14T14:51:20.636Z,1.14
2023-02-14T14:52:20.650Z,1.13
2023-02-14T14:53:20.650Z,1.18
2023-02-14T14:54:20.649Z,1.18
2023-02-14T14:55:20.673Z,1.19
2023-02-14T14:56:20.656Z,1.18
2023-02-14T14:57:20.681Z,1.18
2023-02-14T14:58:20.695Z,1.14
2023-02-14T14:59:20.688Z,1.17
2023-02-14T15:00:20.720Z,1.13